Aeroporto :
LOGIN :

Iscrizione | Disclaimer

   EN    FR    IT 

 










Sommario :    VFR   VFR Marginale   IFR   IFR Intensivo   IFR Molto Intensivo
Visibilità : 
Base nubi : 
>= 8 km
>= 3000ft
5 / 8 km
1000 / 3000 ft
1500m / 5 km
500 / 1000 ft
800 / 1500m
200 / 500 ft
< 800m
< 200 ft
Simboli :   Temporali  Nebbia  Neve Forte  Precipitazioni Forti  Vento > 20 kt
SIGMETs :   Varie  Temporali  Ghiacco  Turbolenza  Onda orograficha  Ceneri Vulcaniche






- Altitudine del aeroporto : 74 ft
- Codice IATA : LRH


LFBH - La Rochelle Ile de Ré

ULTIMO METAR :
  • 051330Z AUTO 22013KT 2500 +DZ BR OVC005 19/18 Q1010 TEMPO 24020G33KT 3000 RA

METARs OBSOLETI :
  • 051300Z AUTO 22015KT 7000 -RADZ BKN010 OVC016 19/18 Q1011 TEMPO 24020G33KT 3000 RA
  • 051230Z AUTO 22014KT 5000 -RA BR BKN007 OVC017 18/18 Q1011 TEMPO 24020G33KT RA
  • 051200Z AUTO 22014KT 9999 3000 -RA FEW009 BKN015 OVC024 19/17 Q1011 TEMPO 24020G33KT 3000 RA BKN009
  • 051130Z AUTO 20011KT 9999 SCT007 BKN014 OVC030 19/18 Q1011 TEMPO 24020G33KT 3000 RA BKN009
  • 051100Z AUTO 21013KT 6000 -RA BKN007 BKN016 BKN022 18/18 Q1012 TEMPO 23020G30KT 3000 RA BKN014

TAF TAF LFBH
Valido dal 05 a 12 ore il 06 a 12 ore UTC


051100Z 0512/0612 23012KT 9999 BKN022
TEMPO 0512/0524 24020G33KT
PROB40
TEMPO 0512/0516 3000 RA BKN009
PROB40
TEMPO 0516/0522 4000 -SHRA BKN014TCU
ATIS : +33 5 46 00 13 92



MetMap, La meteo Aeronautica in un colpo d'occhio ! - Copyright ORBIFLY Dicembre 2007 - Disclaimer

ORBIFLY MET'MAP TEAM :

Programmazione e sviluppo : Alexandra Zaïnal
Concezione : Baudouin d'Aumeries
Aiuto per la programmazione : Marc-Olivier Méhu
Supporto tecnico e logistico : Manuel Goepfert
Aiuto per la traduzione : Arnaldo La Scala

Contatto : metmap@orbifly.com




FONTI E CREDITI :

   NOAA